Terminal Aerodrome Forecast
Issued by NWS Flagstaff, AZ

Home | Current Version | Previous Version | Text Only | Print | Product List | Glossary On
Versions: 1 2 3 4 5 6 7 8 9 10 11 12 13 14 15 16 17 18 19 20 21 22 23 24 25 26 27 28 29 30 31 32 33
000
FTUS45 KFGZ 021129
TAFFLG
TAF
KFLG 021129Z 0212/0312 VRB03KT P6SM FEW010
     FM021600 VRB05KT P6SM FEW060
     FM021930 09006KT P6SM FEW040 BKN060 PROB30 0222/0301 VRB10G20KT
      5SM -SHRA BR BKN040
     FM030300 VRB03KT P6SM FEW060=

USA.gov is the U.S. government's official web portal to all federal, state and local government web resources and services.